createdAt,value
2019-02-06T00:01:22.097Z,23.73
2019-02-06T00:03:53.974Z,24.57
2019-02-06T00:06:25.970Z,25.47
2019-02-06T00:08:58.114Z,22.13
2019-02-06T00:11:29.995Z,22.70
2019-02-06T00:14:01.791Z,22.90
2019-02-06T00:16:33.741Z,22.77
2019-02-06T00:19:05.865Z,24.07
2019-02-06T00:21:37.763Z,23.37
2019-02-06T00:24:09.842Z,23.03
2019-02-06T00:26:41.763Z,22.77
2019-02-06T00:29:26.344Z,22.07
2019-02-06T00:31:58.159Z,21.80
2019-02-06T00:34:30.092Z,21.40
2019-02-06T00:37:01.991Z,20.13
2019-02-06T00:39:33.855Z,20.90
2019-02-06T00:42:05.813Z,21.90
2019-02-06T00:44:38.017Z,21.30
2019-02-06T00:47:09.868Z,20.73
2019-02-06T00:49:41.743Z,20.93
2019-02-06T00:52:13.635Z,20.83
2019-02-06T00:54:45.529Z,19.93
2019-02-06T00:57:17.713Z,21.10
2019-02-06T00:59:49.670Z,20.30
2019-02-06T01:02:21.612Z,20.27
2019-02-06T01:04:53.622Z,20.83
2019-02-06T01:07:25.533Z,20.53
2019-02-06T01:09:57.793Z,19.83
2019-02-06T01:12:29.653Z,21.70
2019-02-06T01:15:03.118Z,20.87
2019-02-06T01:17:35.555Z,20.97
2019-02-06T01:20:08.900Z,21.90
2019-02-06T01:22:41.132Z,21.43
2019-02-06T01:25:14.894Z,20.33
2019-02-06T01:27:46.906Z,19.93
2019-02-06T01:30:22.613Z,20.00
2019-02-06T01:32:54.456Z,21.37
2019-02-06T01:35:26.364Z,22.23
2019-02-06T01:37:58.269Z,20.53
2019-02-06T01:40:30.078Z,19.83
2019-02-06T01:43:01.992Z,21.10
2019-02-06T01:45:33.889Z,20.43
2019-02-06T01:48:05.738Z,20.27
2019-02-06T01:50:37.630Z,20.67
2019-02-06T01:53:09.541Z,20.53
2019-02-06T01:55:41.541Z,19.10
2019-02-06T01:58:13.876Z,19.77
2019-02-06T02:00:46.106Z,20.10
2019-02-06T02:03:18.098Z,20.80
2019-02-06T02:06:01.366Z,20.20
2019-02-06T02:08:25.349Z,20.83
2019-02-06T02:10:57.375Z,20.80
2019-02-06T02:13:29.355Z,22.33
2019-02-06T02:16:01.201Z,22.40
2019-02-06T02:18:33.106Z,23.13
2019-02-06T02:21:05.178Z,22.03
2019-02-06T02:23:37.193Z,22.27
2019-02-06T02:26:09.221Z,21.07
2019-02-06T02:28:42.159Z,22.60
2019-02-06T02:31:14.170Z,22.23
2019-02-06T02:33:47.409Z,23.67
2019-02-06T02:36:20.640Z,22.43
2019-02-06T02:38:53.653Z,23.00
2019-02-06T02:41:26.315Z,23.33
2019-02-06T02:43:58.253Z,22.00
2019-02-06T02:46:30.167Z,21.67
2019-02-06T02:49:02.056Z,22.23
2019-02-06T02:51:33.939Z,22.43
2019-02-06T02:54:05.900Z,22.40
2019-02-06T02:56:37.839Z,21.37
2019-02-06T02:59:09.768Z,21.73
2019-02-06T03:02:01.043Z,22.13
2019-02-06T03:04:41.177Z,21.80
2019-02-06T03:07:14.177Z,20.90
2019-02-06T03:09:47.202Z,22.40
2019-02-06T03:12:20.539Z,20.70
2019-02-06T03:14:52.584Z,22.53
2019-02-06T03:17:25.035Z,20.57
2019-02-06T03:19:58.215Z,21.67
2019-02-06T03:22:32.915Z,23.37
2019-02-06T03:25:04.024Z,21.97
2019-02-06T03:27:36.178Z,22.03
2019-02-06T03:30:10.611Z,22.43
2019-02-06T03:32:45.705Z,22.37
2019-02-06T03:35:20.581Z,22.83
2019-02-06T03:37:52.622Z,22.10
2019-02-06T03:40:25.951Z,21.83
2019-02-06T03:42:58.108Z,20.53
2019-02-06T03:45:32.578Z,22.20
2019-02-06T03:48:09.235Z,22.40
2019-02-06T03:50:43.643Z,23.67
2019-02-06T03:53:16.006Z,23.10
2019-02-06T03:55:47.976Z,20.93
2019-02-06T03:58:19.944Z,21.43
2019-02-06T04:00:52.178Z,21.30
2019-02-06T04:03:25.284Z,21.23
2019-02-06T04:05:57.438Z,22.20
2019-02-06T04:08:29.667Z,20.63
2019-02-06T04:11:01.740Z,20.97
2019-02-06T04:13:33.920Z,21.23
2019-02-06T04:16:07.008Z,22.90
2019-02-06T04:18:40.474Z,22.47
2019-02-06T04:21:12.581Z,22.23
2019-02-06T04:23:44.501Z,22.27
2019-02-06T04:26:17.881Z,21.07
2019-02-06T04:28:52.116Z,23.63
2019-02-06T04:31:24.370Z,21.63
2019-02-06T04:33:56.721Z,22.67
2019-02-06T04:36:28.710Z,21.47
2019-02-06T04:39:05.632Z,22.03
2019-02-06T04:41:39.887Z,21.40
2019-02-06T04:44:13.409Z,21.50
2019-02-06T04:46:46.410Z,21.63
2019-02-06T04:49:18.732Z,21.20
2019-02-06T04:51:52.886Z,20.93
2019-02-06T04:54:27.096Z,20.13
2019-02-06T04:57:00.711Z,21.57
2019-02-06T04:59:33.721Z,20.37
2019-02-06T05:02:05.942Z,21.60
2019-02-06T05:04:40.400Z,19.83
2019-02-06T05:07:19.520Z,18.43
2019-02-06T05:09:48.808Z,23.07
2019-02-06T05:12:20.762Z,20.17
2019-02-06T05:14:52.931Z,20.07
2019-02-06T05:17:25.186Z,20.23
2019-02-06T05:19:58.468Z,19.10
2019-02-06T05:22:31.803Z,18.67
2019-02-06T05:25:06.592Z,19.33
2019-02-06T05:27:40.009Z,19.77
2019-02-06T05:30:12.485Z,20.37
2019-02-06T05:32:45.756Z,21.67
2019-02-06T05:35:17.915Z,19.23
2019-02-06T05:37:49.914Z,17.83
2019-02-06T05:40:22.002Z,16.57
2019-02-06T05:42:54.262Z,17.80
2019-02-06T05:45:26.437Z,17.00
2019-02-06T05:47:58.478Z,17.87
2019-02-06T05:50:32.787Z,17.03
2019-02-06T05:53:06.154Z,16.07
2019-02-06T05:55:39.394Z,17.13
2019-02-06T05:58:11.323Z,16.40
2019-02-06T06:00:46.913Z,15.57
2019-02-06T06:03:20.599Z,17.47
2019-02-06T06:05:54.936Z,17.37
2019-02-06T06:08:28.152Z,17.60
2019-02-06T06:11:00.161Z,17.50
2019-02-06T06:13:34.569Z,16.87
2019-02-06T06:16:06.941Z,18.40
2019-02-06T06:18:40.348Z,17.93
2019-02-06T06:21:12.532Z,17.53
2019-02-06T06:23:44.569Z,18.53
2019-02-06T06:26:19.192Z,16.87
2019-02-06T06:28:52.171Z,18.23
2019-02-06T06:31:24.357Z,18.93
2019-02-06T06:33:58.159Z,18.30
2019-02-06T06:36:30.428Z,18.40
2019-02-06T06:39:02.509Z,17.77
2019-02-06T06:41:36.908Z,16.67
2019-02-06T06:44:10.446Z,17.77
2019-02-06T06:46:58.885Z,19.37
2019-02-06T06:49:32.625Z,18.73
2019-02-06T06:52:05.748Z,19.17
2019-02-06T06:54:37.740Z,19.00
2019-02-06T06:57:12.286Z,18.87
2019-02-06T06:59:44.273Z,18.93
2019-02-06T07:02:16.137Z,20.37
2019-02-06T07:04:48.225Z,18.70
2019-02-06T07:07:22.654Z,18.57
2019-02-06T07:09:54.755Z,19.07
2019-02-06T07:12:26.816Z,18.13
2019-02-06T07:15:00.619Z,18.53
2019-02-06T07:17:33.867Z,17.73
2019-02-06T07:20:09.010Z,17.83
2019-02-06T07:22:42.299Z,17.67
2019-02-06T07:25:16.077Z,18.73
2019-02-06T07:27:48.261Z,17.80
2019-02-06T07:30:26.235Z,18.63
2019-02-06T07:32:58.809Z,18.03
2019-02-06T07:35:32.272Z,17.73
2019-02-06T07:38:04.727Z,18.43
2019-02-06T07:40:36.908Z,18.40
2019-02-06T07:43:08.861Z,19.33
2019-02-06T07:45:42.663Z,19.77
2019-02-06T07:48:14.733Z,19.30
2019-02-06T07:50:46.773Z,19.43
2019-02-06T07:53:21.057Z,18.67
2019-02-06T07:55:55.698Z,18.80
2019-02-06T07:58:30.147Z,19.03
2019-02-06T08:01:02.610Z,18.70
2019-02-06T08:03:34.648Z,18.17
2019-02-06T08:06:09.265Z,20.13
2019-02-06T08:08:41.323Z,19.27
2019-02-06T08:11:13.354Z,19.63
2019-02-06T08:13:45.709Z,19.47
2019-02-06T08:16:20.071Z,19.47
2019-02-06T08:18:54.382Z,19.50
2019-02-06T08:21:26.686Z,18.83
2019-02-06T08:23:59.695Z,19.73
2019-02-06T08:26:33.109Z,18.60
2019-02-06T08:29:06.908Z,19.17
2019-02-06T08:31:41.040Z,20.73
2019-02-06T08:34:13.185Z,19.13
2019-02-06T08:36:45.697Z,18.93
2019-02-06T08:39:17.543Z,20.17
2019-02-06T08:41:49.491Z,18.53
2019-02-06T08:44:23.415Z,18.90
2019-02-06T08:46:55.852Z,19.57
2019-02-06T08:49:27.839Z,19.40
2019-02-06T08:52:01.357Z,20.43
2019-02-06T08:54:34.565Z,20.23
2019-02-06T08:57:07.998Z,19.83
2019-02-06T08:59:41.206Z,18.03
2019-02-06T09:02:13.896Z,19.07
2019-02-06T09:04:55.549Z,19.20
2019-02-06T09:07:21.887Z,19.07
2019-02-06T09:09:53.823Z,18.97
2019-02-06T09:12:28.629Z,17.67
2019-02-06T09:15:01.369Z,19.30
2019-02-06T09:17:33.276Z,17.63
2019-02-06T09:20:08.130Z,18.63
2019-02-06T09:22:40.371Z,20.47
2019-02-06T09:25:13.626Z,19.97
2019-02-06T09:27:45.766Z,18.10
2019-02-06T09:30:20.313Z,18.50
2019-02-06T09:32:52.440Z,21.47
2019-02-06T09:35:25.088Z,20.60
2019-02-06T09:37:58.193Z,18.07
2019-02-06T09:40:32.016Z,18.90
2019-02-06T09:43:04.167Z,19.13
2019-02-06T09:45:36.359Z,18.53
2019-02-06T09:48:14.116Z,18.87
2019-02-06T09:50:48.553Z,18.53
2019-02-06T09:53:21.955Z,18.83
2019-02-06T09:55:54.021Z,19.53
2019-02-06T09:58:26.086Z,18.33
2019-02-06T10:00:58.108Z,18.67
2019-02-06T10:03:31.458Z,19.10
2019-02-06T10:06:03.731Z,18.73
2019-02-06T10:08:36.657Z,20.00
2019-02-06T10:11:09.459Z,19.57
2019-02-06T10:13:41.403Z,19.57
2019-02-06T10:16:16.225Z,18.90
2019-02-06T10:18:48.255Z,18.43
2019-02-06T10:21:21.605Z,18.13
2019-02-06T10:23:55.377Z,18.93
2019-02-06T10:26:27.635Z,19.13
2019-02-06T10:28:59.940Z,19.80
2019-02-06T10:31:32.897Z,18.80
2019-02-06T10:34:05.648Z,19.70
2019-02-06T10:36:37.943Z,20.03
2019-02-06T10:39:10.976Z,19.17
2019-02-06T10:41:43.253Z,19.63
2019-02-06T10:44:16.758Z,18.40
2019-02-06T10:46:49.237Z,18.63
2019-02-06T10:49:22.300Z,19.60
2019-02-06T10:51:54.478Z,20.63
2019-02-06T10:54:27.416Z,20.03
2019-02-06T10:57:00.730Z,20.70
2019-02-06T10:59:33.418Z,20.33
2019-02-06T11:02:07.165Z,19.40
2019-02-06T11:04:39.387Z,20.40
2019-02-06T11:07:12.351Z,22.00
2019-02-06T11:09:46.468Z,23.10
2019-02-06T11:12:20.752Z,21.20
2019-02-06T11:14:53.018Z,21.50
2019-02-06T11:17:25.299Z,20.20
2019-02-06T11:19:58.600Z,21.37
2019-02-06T11:22:31.189Z,22.53
2019-02-06T11:25:05.123Z,20.93
2019-02-06T11:27:39.681Z,21.33
2019-02-06T11:30:20.075Z,21.33
2019-02-06T11:32:52.196Z,21.10
2019-02-06T11:35:24.413Z,20.80
2019-02-06T11:37:56.839Z,20.77
2019-02-06T11:40:29.148Z,21.00
2019-02-06T11:43:01.491Z,20.83
2019-02-06T11:45:35.142Z,21.10
2019-02-06T11:48:08.796Z,21.97
2019-02-06T11:50:42.639Z,21.17
2019-02-06T11:53:20.439Z,20.63
2019-02-06T11:55:53.819Z,20.77
2019-02-06T11:58:27.165Z,20.63
2019-02-06T12:01:30.234Z,20.23
2019-02-06T12:04:02.789Z,20.53
2019-02-06T12:06:34.756Z,20.07
2019-02-06T12:09:12.486Z,20.87
2019-02-06T12:11:45.447Z,21.43
2019-02-06T12:14:17.802Z,22.73
2019-02-06T12:16:49.710Z,21.97
2019-02-06T12:19:22.941Z,22.03
2019-02-06T12:21:55.156Z,19.73
2019-02-06T12:24:28.641Z,19.63
2019-02-06T12:27:00.981Z,21.90
2019-02-06T12:29:35.907Z,20.93
2019-02-06T12:32:08.135Z,20.33
2019-02-06T12:34:41.418Z,19.47
2019-02-06T12:37:13.394Z,19.17
2019-02-06T12:39:46.168Z,19.50
2019-02-06T12:42:19.342Z,19.80
2019-02-06T12:44:52.858Z,21.40
2019-02-06T12:47:26.946Z,19.83
2019-02-06T12:50:01.312Z,20.03
2019-02-06T12:52:35.067Z,19.50
2019-02-06T12:55:12.021Z,18.63
2019-02-06T12:57:45.388Z,19.13
2019-02-06T13:00:36.805Z,20.10
2019-02-06T13:03:13.108Z,20.47
2019-02-06T13:05:45.316Z,19.07
2019-02-06T13:08:18.591Z,18.70
2019-02-06T13:10:50.593Z,19.53
2019-02-06T13:13:23.017Z,20.70
2019-02-06T13:15:55.151Z,19.03
2019-02-06T13:18:27.053Z,20.77
2019-02-06T13:20:59.282Z,18.97
2019-02-06T13:23:33.897Z,18.63
2019-02-06T13:26:07.624Z,18.70
2019-02-06T13:28:39.770Z,20.10
2019-02-06T13:31:13.329Z,20.17
2019-02-06T13:33:46.828Z,19.43
2019-02-06T13:36:19.305Z,20.20
2019-02-06T13:38:53.723Z,20.47
2019-02-06T13:41:26.259Z,19.07
2019-02-06T13:43:58.919Z,18.17
2019-02-06T13:46:32.037Z,20.47
2019-02-06T13:49:05.128Z,18.63
2019-02-06T13:51:37.324Z,18.87
2019-02-06T13:54:09.568Z,20.07
2019-02-06T13:56:41.667Z,18.47
2019-02-06T13:59:13.635Z,19.37
2019-02-06T14:01:46.674Z,18.57
2019-02-06T14:04:19.854Z,19.63
2019-02-06T14:06:54.310Z,17.83
2019-02-06T14:09:26.910Z,18.50
2019-02-06T14:11:59.316Z,16.73
2019-02-06T14:14:31.363Z,18.53
2019-02-06T14:17:03.506Z,17.37
2019-02-06T14:19:35.827Z,17.50
2019-02-06T14:22:10.027Z,18.43
2019-02-06T14:25:08.199Z,17.70
2019-02-06T14:27:55.993Z,17.67
2019-02-06T14:31:04.865Z,16.70
2019-02-06T14:34:00.271Z,17.00
2019-02-06T14:37:16.592Z,17.33
2019-02-06T14:40:14.229Z,17.17
2019-02-06T14:43:13.807Z,16.57
2019-02-06T14:46:47.924Z,16.43
2019-02-06T14:49:33.173Z,16.33
2019-02-06T14:52:38.694Z,16.60
2019-02-06T14:55:55.288Z,15.07
2019-02-06T14:58:56.487Z,14.67
2019-02-06T15:01:37.487Z,13.87
2019-02-06T15:04:45.811Z,14.20
2019-02-06T15:07:42.790Z,14.47
2019-02-06T15:10:36.573Z,13.87
2019-02-06T15:13:44.545Z,13.97
2019-02-06T15:16:46.193Z,13.93
2019-02-06T15:19:50.819Z,14.33
2019-02-06T15:23:12.649Z,14.37
2019-02-06T15:26:25.376Z,14.70
2019-02-06T15:29:36.655Z,12.77
2019-02-06T15:32:39.015Z,14.00
2019-02-06T15:35:41.071Z,14.47
2019-02-06T15:38:53.195Z,14.53
2019-02-06T15:41:49.675Z,13.80
2019-02-06T15:44:55.688Z,14.77
2019-02-06T15:48:13.160Z,14.40
2019-02-06T15:51:28.684Z,13.83
2019-02-06T15:54:38.917Z,14.83
2019-02-06T15:58:06.935Z,13.80
2019-02-06T16:01:07.261Z,14.03
2019-02-06T16:04:22.003Z,14.00
2019-02-06T16:07:36.903Z,14.77
2019-02-06T16:10:36.125Z,14.53
2019-02-06T16:13:50.229Z,14.40
2019-02-06T16:17:15.351Z,15.20
2019-02-06T16:20:42.307Z,15.00
2019-02-06T16:23:33.930Z,14.90
2019-02-06T16:26:26.269Z,15.10
2019-02-06T16:30:01.520Z,14.33
2019-02-06T16:32:57.830Z,15.33
2019-02-06T16:36:12.305Z,15.90
2019-02-06T16:39:27.488Z,15.67
2019-02-06T16:42:45.861Z,15.07
2019-02-06T16:46:07.503Z,17.00
2019-02-06T16:48:57.816Z,16.20
2019-02-06T16:52:07.371Z,15.90
2019-02-06T16:55:10.460Z,16.57
2019-02-06T16:58:04.302Z,16.70
2019-02-06T17:01:05.399Z,17.03
2019-02-06T17:04:20.255Z,15.53
2019-02-06T17:07:24.330Z,16.83
2019-02-06T17:10:46.012Z,16.30
2019-02-06T17:13:53.215Z,14.90
2019-02-06T17:16:53.005Z,16.03
2019-02-06T17:19:39.015Z,17.50
2019-02-06T17:22:43.289Z,17.90
2019-02-06T17:26:00.783Z,16.87
2019-02-06T17:29:15.555Z,18.47
2019-02-06T17:32:47.306Z,17.83
2019-02-06T17:35:44.731Z,17.63
2019-02-06T17:38:36.155Z,18.83
2019-02-06T17:41:55.311Z,18.47
2019-02-06T17:45:12.214Z,18.80
2019-02-06T17:47:51.666Z,18.07
2019-02-06T17:51:04.704Z,18.17
2019-02-06T17:53:51.772Z,18.33
2019-02-06T17:56:24.980Z,19.07
2019-02-06T17:58:58.163Z,19.57
2019-02-06T18:01:54.822Z,18.63
2019-02-06T18:04:34.859Z,18.77
2019-02-06T18:07:08.789Z,19.13
2019-02-06T18:09:41.445Z,19.20
2019-02-06T18:12:13.865Z,19.93
2019-02-06T18:14:46.935Z,19.10
2019-02-06T18:17:22.271Z,18.83
2019-02-06T18:19:54.390Z,19.63
2019-02-06T18:22:26.888Z,20.23
2019-02-06T18:25:00.030Z,20.33
2019-02-06T18:27:34.337Z,19.83
2019-02-06T18:30:11.359Z,19.90
2019-02-06T18:32:44.735Z,19.67
2019-02-06T18:35:17.358Z,19.37
2019-02-06T18:37:52.049Z,19.00
2019-02-06T18:40:25.043Z,19.63
2019-02-06T18:42:57.581Z,19.90
2019-02-06T18:45:31.053Z,19.30
2019-02-06T18:48:05.304Z,19.27
2019-02-06T18:50:39.066Z,19.43
2019-02-06T18:53:13.677Z,20.63
2019-02-06T18:55:45.704Z,19.93
2019-02-06T18:58:19.150Z,19.63
2019-02-06T19:00:51.634Z,21.03
2019-02-06T19:03:32.826Z,20.77
2019-02-06T19:06:05.030Z,18.97
2019-02-06T19:08:40.021Z,20.60
2019-02-06T19:11:12.814Z,20.17
2019-02-06T19:13:44.746Z,20.00
2019-02-06T19:16:19.621Z,20.87
2019-02-06T19:18:52.534Z,22.07
2019-02-06T19:21:27.289Z,19.27
2019-02-06T19:23:59.352Z,20.63
2019-02-06T19:26:33.433Z,18.87
2019-02-06T19:29:05.751Z,19.17
2019-02-06T19:31:37.920Z,21.53
2019-02-06T19:34:11.182Z,20.80
2019-02-06T19:36:43.252Z,19.93
2019-02-06T19:39:16.204Z,19.60
2019-02-06T19:41:48.459Z,20.87
2019-02-06T19:44:21.198Z,22.30
2019-02-06T19:46:54.521Z,20.17
2019-02-06T19:49:26.555Z,20.30
2019-02-06T19:52:00.680Z,20.80
2019-02-06T19:54:32.774Z,20.97
2019-02-06T19:57:04.936Z,21.53
2019-02-06T19:59:39.638Z,21.13
2019-02-06T20:02:11.819Z,20.37
2019-02-06T20:04:43.720Z,20.27
2019-02-06T20:07:18.203Z,22.17
2019-02-06T20:09:50.159Z,21.47
2019-02-06T20:12:23.476Z,19.70
2019-02-06T20:14:55.892Z,20.90
2019-02-06T20:17:29.074Z,18.93
2019-02-06T20:20:01.193Z,19.93
2019-02-06T20:22:36.098Z,20.07
2019-02-06T20:25:08.929Z,19.27
2019-02-06T20:27:41.115Z,19.03
2019-02-06T20:30:17.366Z,19.97
2019-02-06T20:32:49.704Z,20.63
2019-02-06T20:35:21.829Z,19.93
2019-02-06T20:37:54.083Z,20.13
2019-02-06T20:40:32.431Z,19.67
2019-02-06T20:43:06.783Z,17.57
2019-02-06T20:45:38.813Z,19.40
2019-02-06T20:48:14.773Z,20.57
2019-02-06T20:50:48.297Z,18.77
2019-02-06T20:53:22.768Z,17.83
2019-02-06T20:55:54.945Z,19.03
2019-02-06T20:58:31.019Z,17.73
2019-02-06T21:01:03.325Z,17.83
2019-02-06T21:03:35.741Z,17.03
2019-02-06T21:06:07.790Z,16.77
2019-02-06T21:08:40.958Z,17.57
2019-02-06T21:11:15.322Z,17.83
2019-02-06T21:13:47.382Z,18.13
2019-02-06T21:16:20.777Z,17.63
2019-02-06T21:18:52.761Z,19.80
2019-02-06T21:21:25.895Z,17.10
2019-02-06T21:23:59.498Z,18.57
2019-02-06T21:26:31.538Z,18.77
2019-02-06T21:29:05.363Z,18.33
2019-02-06T21:31:38.622Z,18.27
2019-02-06T21:34:10.661Z,18.37
2019-02-06T21:36:42.960Z,17.53
2019-02-06T21:39:16.075Z,18.90
2019-02-06T21:41:48.296Z,19.47
2019-02-06T21:44:21.138Z,17.57
2019-02-06T21:46:53.326Z,18.07
2019-02-06T21:49:27.271Z,19.17
2019-02-06T21:51:59.194Z,18.77
2019-02-06T21:54:32.066Z,18.33
2019-02-06T21:57:06.211Z,18.93
2019-02-06T21:59:38.178Z,19.17
2019-02-06T22:02:12.152Z,19.03
2019-02-06T22:04:44.135Z,19.50
2019-02-06T22:07:16.277Z,19.43
2019-02-06T22:09:48.228Z,18.70
2019-02-06T22:12:20.247Z,18.20
2019-02-06T22:14:52.627Z,18.23
2019-02-06T22:17:24.756Z,18.07
2019-02-06T22:19:56.692Z,17.73
2019-02-06T22:22:29.674Z,18.57
2019-02-06T22:25:02.714Z,18.93
2019-02-06T22:27:35.022Z,18.23
2019-02-06T22:30:09.690Z,18.33
2019-02-06T22:32:41.675Z,19.27
2019-02-06T22:35:15.277Z,17.90
2019-02-06T22:37:48.760Z,18.50
2019-02-06T22:40:23.562Z,16.80
2019-02-06T22:42:57.063Z,17.10
2019-02-06T22:45:29.448Z,19.70
2019-02-06T22:48:01.613Z,17.80
2019-02-06T22:50:34.969Z,18.43
2019-02-06T22:53:08.897Z,19.33
2019-02-06T22:55:40.903Z,19.43
2019-02-06T22:58:14.589Z,17.20
2019-02-06T23:01:17.582Z,18.87
2019-02-06T23:03:50.404Z,18.43
2019-02-06T23:06:23.893Z,17.57
2019-02-06T23:08:55.961Z,17.73
2019-02-06T23:11:29.234Z,18.40
2019-02-06T23:14:02.375Z,19.43
2019-02-06T23:16:34.647Z,18.83
2019-02-06T23:19:09.626Z,17.33
2019-02-06T23:21:42.833Z,18.47
2019-02-06T23:24:16.190Z,18.00
2019-02-06T23:26:48.331Z,16.57
2019-02-06T23:29:20.346Z,17.67
2019-02-06T23:31:52.401Z,17.43
2019-02-06T23:34:24.417Z,18.07
2019-02-06T23:36:57.449Z,18.40
2019-02-06T23:39:30.759Z,17.60
2019-02-06T23:42:03.411Z,17.17
2019-02-06T23:44:35.586Z,18.37
2019-02-06T23:47:08.762Z,17.00
2019-02-06T23:49:40.627Z,16.67
2019-02-06T23:52:14.181Z,17.80
2019-02-06T23:54:46.340Z,17.37
2019-02-06T23:57:18.602Z,17.83
2019-02-06T23:59:50.527Z,17.20
